createdAt,value
2023-05-20T00:33:43.619Z,3.30
2023-05-20T00:37:04.061Z,3.53
2023-05-20T00:53:09.286Z,3.70
2023-05-20T01:03:09.203Z,4.20
2023-05-20T01:06:53.631Z,3.43
2023-05-20T01:26:43.419Z,5.43
2023-05-20T01:29:32.405Z,5.43
2023-05-20T01:33:07.894Z,5.47
2023-05-20T02:33:19.374Z,7.20
2023-05-20T02:36:05.673Z,8.77
2023-05-20T02:42:30.266Z,8.60
2023-05-20T02:48:36.331Z,9.23
2023-05-20T02:54:52.447Z,8.50
2023-05-20T02:57:34.966Z,9.03
2023-05-20T03:03:24.875Z,7.77
2023-05-20T03:06:13.802Z,8.20
2023-05-20T03:12:12.859Z,7.90
2023-05-20T03:15:21.166Z,8.17
2023-05-20T03:18:11.054Z,6.97
2023-05-20T03:21:00.696Z,8.23
2023-05-20T03:23:58.964Z,7.33
2023-05-20T03:26:57.237Z,7.27
2023-05-20T03:29:58.011Z,6.90
2023-05-20T03:33:00.243Z,6.87
2023-05-20T03:36:04.213Z,7.33
2023-05-20T03:38:52.854Z,8.10
2023-05-20T03:41:48.671Z,8.47
2023-05-20T03:44:32.059Z,9.57
2023-05-20T03:47:16.121Z,8.67
2023-05-20T03:50:02.888Z,8.27
2023-05-20T03:52:43.177Z,8.40
2023-05-20T03:55:33.032Z,7.77
2023-05-20T03:58:22.832Z,8.40
2023-05-20T04:00:57.233Z,7.40
2023-05-20T04:03:40.401Z,8.47
2023-05-20T04:06:30.436Z,8.37
2023-05-20T04:09:21.612Z,8.43
2023-05-20T04:12:06.092Z,8.20
2023-05-20T04:14:43.951Z,7.80
2023-05-20T04:17:24.104Z,7.90
2023-05-20T04:20:08.554Z,8.37
2023-05-20T04:23:01.672Z,8.90
2023-05-20T04:25:49.171Z,9.43
2023-05-20T04:28:42.179Z,9.30
2023-05-20T04:31:29.384Z,9.27
2023-05-20T04:34:08.551Z,8.47
2023-05-20T04:37:05.002Z,8.93
2023-05-20T04:39:51.667Z,10.10
2023-05-20T04:42:38.113Z,8.00
2023-05-20T04:45:26.736Z,9.33
2023-05-20T04:54:47.112Z,9.00
2023-05-20T04:58:05.770Z,8.83
2023-05-20T05:10:36.752Z,9.70
2023-05-20T05:20:08.266Z,10.60
2023-05-20T05:33:30.943Z,9.13
2023-05-20T05:43:02.107Z,9.70
2023-05-20T05:53:10.189Z,9.27
2023-05-20T05:56:15.414Z,9.97
2023-05-20T05:59:32.861Z,10.20
2023-05-20T06:02:40.828Z,9.80
2023-05-20T06:05:51.679Z,10.03
2023-05-20T06:15:09.055Z,9.73
2023-05-20T06:30:50.944Z,10.13
2023-05-20T06:33:51.095Z,11.53
2023-05-20T06:36:47.262Z,9.67
2023-05-20T06:39:27.486Z,9.10
2023-05-20T06:42:11.530Z,9.47
2023-05-20T06:45:28.405Z,10.20
2023-05-20T06:48:15.217Z,9.40
2023-05-20T06:51:01.654Z,9.10
2023-05-20T06:53:54.266Z,9.87
2023-05-20T06:56:44.537Z,9.73
2023-05-20T06:59:38.234Z,9.50
2023-05-20T07:02:50.076Z,9.80
2023-05-20T07:05:26.095Z,8.70
2023-05-20T07:08:08.691Z,9.30
2023-05-20T07:10:54.769Z,8.97
2023-05-20T07:13:38.889Z,8.37
2023-05-20T07:16:30.139Z,7.17
2023-05-20T07:19:21.252Z,7.63
2023-05-20T07:22:00.675Z,7.20
2023-05-20T07:24:51.566Z,8.10
2023-05-20T07:27:40.884Z,8.13
2023-05-20T07:30:20.348Z,7.43
2023-05-20T07:33:34.802Z,7.23
2023-05-20T07:39:18.301Z,7.50
2023-05-20T07:42:06.145Z,7.13
2023-05-20T07:44:45.419Z,6.90
2023-05-20T07:50:42.967Z,6.80
2023-05-20T07:53:30.825Z,6.67
2023-05-20T07:56:06.522Z,5.33
2023-05-20T07:58:44.002Z,5.87
2023-05-20T08:01:26.201Z,6.93
2023-05-20T08:04:08.424Z,6.70
2023-05-20T08:06:51.246Z,6.20
2023-05-20T08:09:37.742Z,5.23
2023-05-20T08:12:28.982Z,5.60
2023-05-20T08:15:18.578Z,5.77
2023-05-20T08:18:05.992Z,5.37
2023-05-20T08:23:58.060Z,4.93
2023-05-20T08:26:37.312Z,5.33
2023-05-20T08:32:15.334Z,6.40
2023-05-20T08:35:12.395Z,5.63
2023-05-20T08:38:04.173Z,5.00
2023-05-20T08:40:50.469Z,5.40
2023-05-20T08:43:35.653Z,5.47
2023-05-20T08:46:19.234Z,5.50
2023-05-20T08:49:14.184Z,7.07
2023-05-20T08:52:12.107Z,5.90
2023-05-20T08:55:02.557Z,7.13
2023-05-20T08:58:05.376Z,6.43
2023-05-20T09:00:40.645Z,6.93
2023-05-20T09:03:15.342Z,7.00
2023-05-20T09:05:52.584Z,7.80
2023-05-20T09:08:37.409Z,9.93
2023-05-20T09:11:19.295Z,8.03
2023-05-20T09:14:04.031Z,8.23
2023-05-20T09:16:50.622Z,9.10
2023-05-20T09:22:35.232Z,9.53
2023-05-20T09:25:05.631Z,9.40
2023-05-20T09:27:36.132Z,9.87
2023-05-20T09:30:12.863Z,9.30
2023-05-20T09:32:43.213Z,9.33
2023-05-20T09:35:16.428Z,8.80
2023-05-20T09:37:49.176Z,9.00
2023-05-20T09:40:21.464Z,8.90
2023-05-20T09:42:56.582Z,9.37
2023-05-20T09:45:29.075Z,10.20
2023-05-20T09:47:59.650Z,8.50
2023-05-20T09:50:30.565Z,10.17
2023-05-20T09:53:05.780Z,9.20
2023-05-20T09:55:36.426Z,8.50
2023-05-20T09:58:06.581Z,9.00
2023-05-20T10:00:39.116Z,8.57
2023-05-20T10:03:09.415Z,9.10
2023-05-20T10:05:43.004Z,9.50
2023-05-20T10:08:38.862Z,10.00
2023-05-20T10:11:18.483Z,9.70
2023-05-20T10:14:18.728Z,10.60
2023-05-20T10:16:54.496Z,8.80
2023-05-20T10:19:32.065Z,9.43
2023-05-20T10:22:04.205Z,9.17
2023-05-20T10:24:35.182Z,7.60
2023-05-20T10:27:07.514Z,7.63
2023-05-20T10:32:39.506Z,7.97
2023-05-20T11:15:56.160Z,9.50
2023-05-20T11:18:32.932Z,9.87
2023-05-20T11:21:03.167Z,9.90
2023-05-20T11:23:33.829Z,10.47
2023-05-20T11:26:05.941Z,9.83
2023-05-20T11:28:38.087Z,10.20
2023-05-20T11:31:10.959Z,10.10
2023-05-20T11:33:44.645Z,9.67
2023-05-20T11:36:26.787Z,9.80
2023-05-20T11:38:57.867Z,9.17
2023-05-20T11:41:28.823Z,9.50
2023-05-20T11:44:01.267Z,10.20
2023-05-20T11:46:34.045Z,9.67
2023-05-20T11:49:04.533Z,9.77
2023-05-20T11:51:34.403Z,11.17
2023-05-20T11:54:05.165Z,9.20
2023-05-20T11:56:37.348Z,9.90
2023-05-20T11:59:08.821Z,10.07
2023-05-20T12:01:43.721Z,11.07
2023-05-20T12:04:15.569Z,11.57
2023-05-20T12:06:46.106Z,10.57
2023-05-20T12:09:17.312Z,10.27
2023-05-20T12:11:47.658Z,8.57
2023-05-20T12:14:17.522Z,9.00
2023-05-20T12:16:50.243Z,10.13
2023-05-20T12:19:20.120Z,10.47
2023-05-20T12:21:50.255Z,11.17
2023-05-20T12:24:20.139Z,9.90
2023-05-20T12:26:50.102Z,10.70
2023-05-20T12:29:19.987Z,11.67
2023-05-20T12:31:52.712Z,11.53
2023-05-20T12:34:22.659Z,10.53
2023-05-20T12:36:52.946Z,11.13
2023-05-20T12:39:23.074Z,10.77
2023-05-20T12:41:52.955Z,11.97
2023-05-20T12:44:23.681Z,9.63
2023-05-20T12:46:58.257Z,10.50
2023-05-20T12:49:28.513Z,11.63
2023-05-20T12:51:59.924Z,11.63
2023-05-20T12:54:31.984Z,11.37
2023-05-20T12:57:02.367Z,11.60
2023-05-20T12:59:32.267Z,11.77
2023-05-20T13:02:04.748Z,11.80
2023-05-20T13:04:35.619Z,11.90
2023-05-20T13:07:06.992Z,12.00
2023-05-20T13:09:37.344Z,11.40
2023-05-20T13:12:08.288Z,10.67
2023-05-20T13:14:38.563Z,11.13
2023-05-20T13:17:11.623Z,10.60
2023-05-20T13:19:42.240Z,10.20
2023-05-20T13:22:12.627Z,11.10
2023-05-20T13:24:42.524Z,11.90
2023-05-20T13:27:13.064Z,12.27
2023-05-20T13:29:43.839Z,12.13
2023-05-20T13:32:16.871Z,11.90
2023-05-20T13:34:46.751Z,13.60
2023-05-20T14:03:41.749Z,11.30
2023-05-20T14:07:37.622Z,12.40
2023-05-20T14:48:33.506Z,12.97
2023-05-20T14:59:16.991Z,12.77
2023-05-20T15:02:38.401Z,11.27
2023-05-20T15:06:00.397Z,11.03
2023-05-20T15:09:11.457Z,11.93
2023-05-20T15:12:01.018Z,11.93
2023-05-20T15:14:50.817Z,11.27
2023-05-20T15:18:08.085Z,11.30
2023-05-20T15:24:49.608Z,11.17
2023-05-20T15:27:47.838Z,10.53
2023-05-20T15:31:07.381Z,11.20
2023-05-20T15:34:31.687Z,10.70
2023-05-20T15:38:01.092Z,9.27
2023-05-20T15:41:23.358Z,9.50
2023-05-20T15:50:16.739Z,11.17
2023-05-20T15:52:58.533Z,10.00
2023-05-20T15:55:48.669Z,9.97
2023-05-20T16:03:14.436Z,10.43
2023-05-20T16:06:39.624Z,9.23
2023-05-20T16:09:45.280Z,9.63
2023-05-20T17:08:09.152Z,7.50
2023-05-20T17:10:39.087Z,8.60
2023-05-20T17:13:09.060Z,9.07
2023-05-20T17:15:39.933Z,7.90
2023-05-20T17:18:10.022Z,8.50
2023-05-20T17:20:39.999Z,8.07
2023-05-20T17:23:12.531Z,7.50
2023-05-20T17:25:43.132Z,8.70
2023-05-20T17:28:13.003Z,8.73
2023-05-20T17:30:43.087Z,7.60
2023-05-20T17:33:13.433Z,8.00
2023-05-20T17:35:43.659Z,8.20
2023-05-20T17:38:16.222Z,8.23
2023-05-20T17:40:46.132Z,8.40
2023-05-20T17:43:16.385Z,8.30
2023-05-20T17:45:46.728Z,8.33
2023-05-20T17:48:17.164Z,9.00
2023-05-20T17:50:47.059Z,9.17
2023-05-20T17:53:22.260Z,8.20
2023-05-20T17:55:52.227Z,8.20
2023-05-20T17:58:25.137Z,8.60
2023-05-20T18:00:55.315Z,9.00
2023-05-20T18:03:25.665Z,8.37
2023-05-20T18:05:56.215Z,9.00
2023-05-20T18:08:28.857Z,8.73
2023-05-20T18:10:59.426Z,8.50
2023-05-20T18:13:29.450Z,7.93
2023-05-20T18:15:59.719Z,8.07
2023-05-20T18:18:29.660Z,8.60
2023-05-20T18:20:59.585Z,8.70
2023-05-20T18:23:32.029Z,9.00
2023-05-20T18:26:07.021Z,7.53
2023-05-20T18:28:37.021Z,8.70
2023-05-20T18:31:06.965Z,7.93
2023-05-20T18:33:37.275Z,8.97
2023-05-20T18:36:08.625Z,7.80
2023-05-20T18:38:41.861Z,7.40
2023-05-20T18:41:11.924Z,8.80
2023-05-20T18:43:41.947Z,7.97
2023-05-20T18:46:11.911Z,9.00
2023-05-20T18:48:41.915Z,8.30
2023-05-20T18:51:11.802Z,7.57
2023-05-20T18:53:44.300Z,8.20
2023-05-20T18:56:14.247Z,8.63
2023-05-20T18:58:44.215Z,8.60
2023-05-20T19:01:14.173Z,8.50
2023-05-20T19:03:45.191Z,8.50
2023-05-20T19:06:16.637Z,8.40
2023-05-20T19:08:49.819Z,8.57
2023-05-20T19:11:19.920Z,8.53
2023-05-20T19:13:49.875Z,7.90
2023-05-20T19:16:19.970Z,8.37
2023-05-20T19:18:50.004Z,8.30
2023-05-20T19:21:20.427Z,9.07
2023-05-20T19:23:53.049Z,8.60
2023-05-20T19:26:23.165Z,8.53
2023-05-20T19:28:54.033Z,8.77
2023-05-20T19:31:23.985Z,9.70
2023-05-20T19:33:54.411Z,8.83
2023-05-20T19:36:24.594Z,8.63
2023-05-20T19:39:56.334Z,10.40
2023-05-20T19:42:28.846Z,8.30
2023-05-20T19:44:59.265Z,7.67
2023-05-20T19:47:29.369Z,8.60
2023-05-20T19:49:59.754Z,8.47
2023-05-20T19:52:29.688Z,8.50
2023-05-20T19:54:59.959Z,8.67
2023-05-20T19:57:32.414Z,8.10
2023-05-20T20:00:02.813Z,8.40
2023-05-20T20:02:42.990Z,8.87
2023-05-20T20:05:13.313Z,9.47
2023-05-20T20:07:43.280Z,8.67
2023-05-20T20:10:13.845Z,8.27
2023-05-20T20:12:46.648Z,7.77
2023-05-20T20:15:17.082Z,8.40
2023-05-20T20:17:52.752Z,8.50
2023-05-20T20:20:23.662Z,9.80
2023-05-20T20:22:53.645Z,9.30
2023-05-20T20:25:23.865Z,9.70
2023-05-20T20:27:56.994Z,9.43
2023-05-20T20:30:27.299Z,8.10
2023-05-20T20:32:57.612Z,8.30
2023-05-20T20:35:27.832Z,9.80
2023-05-20T20:38:01.337Z,9.03
2023-05-20T20:40:31.415Z,9.50
2023-05-20T20:43:05.032Z,9.70
2023-05-20T20:45:37.001Z,8.77
2023-05-20T20:48:08.247Z,9.67
2023-05-20T20:50:38.944Z,8.97
2023-05-20T20:53:08.842Z,9.97
2023-05-20T20:55:38.887Z,9.73
2023-05-20T20:58:11.585Z,9.17
2023-05-20T21:00:45.055Z,9.03
2023-05-20T21:03:15.579Z,9.30
2023-05-20T21:05:45.485Z,10.40
2023-05-20T21:08:15.570Z,9.97
2023-05-20T21:10:45.475Z,8.20
2023-05-20T21:13:17.940Z,8.93
2023-05-20T21:15:47.783Z,9.07
2023-05-20T21:18:21.866Z,9.13
2023-05-20T21:20:52.688Z,9.30
2023-05-20T21:23:23.218Z,9.13
2023-05-20T21:25:56.265Z,8.33
2023-05-20T21:28:29.066Z,9.40
2023-05-20T21:30:59.350Z,9.80
2023-05-20T21:33:30.086Z,9.60
2023-05-20T21:36:00.733Z,9.03
2023-05-20T21:38:30.773Z,8.43
2023-05-20T21:41:01.745Z,9.80
2023-05-20T21:43:36.034Z,9.27
2023-05-20T21:46:08.069Z,9.77
2023-05-20T21:48:38.042Z,11.07
2023-05-20T21:51:08.207Z,11.60
2023-05-20T21:53:38.125Z,9.90
2023-05-20T21:56:08.600Z,11.03
2023-05-20T21:58:42.063Z,10.90
2023-05-20T22:01:12.213Z,8.87
2023-05-20T22:03:49.531Z,11.13
2023-05-20T22:06:21.830Z,9.63
2023-05-20T22:08:52.578Z,9.93
2023-05-20T22:11:24.079Z,10.70
2023-05-20T22:13:57.418Z,11.17
2023-05-20T22:16:27.431Z,11.17
2023-05-20T22:18:57.475Z,11.57
2023-05-20T22:21:28.764Z,11.37
2023-05-20T22:23:59.109Z,10.80
2023-05-20T22:26:29.683Z,12.10
2023-05-20T22:29:02.694Z,11.83
2023-05-20T22:31:33.781Z,10.97
2023-05-20T22:34:04.723Z,12.00
2023-05-20T22:36:36.650Z,10.87
2023-05-20T22:39:07.244Z,11.00
2023-05-20T22:41:37.218Z,11.90
2023-05-20T22:44:09.771Z,11.87
2023-05-20T22:46:40.281Z,10.87
2023-05-20T22:49:10.450Z,12.00
2023-05-20T22:51:41.330Z,11.87
2023-05-20T22:54:11.292Z,10.83
2023-05-20T22:56:41.487Z,12.57
2023-05-20T22:59:14.189Z,12.00
2023-05-20T23:01:46.241Z,11.63
2023-05-20T23:04:16.304Z,11.40
2023-05-20T23:06:46.279Z,11.93
2023-05-20T23:09:16.496Z,11.50
2023-05-20T23:11:46.610Z,11.20
2023-05-20T23:14:20.367Z,11.70
2023-05-20T23:16:50.446Z,10.13
2023-05-20T23:19:20.524Z,12.60
2023-05-20T23:21:50.444Z,11.00
2023-05-20T23:24:20.606Z,11.03
2023-05-20T23:26:50.505Z,12.17
2023-05-20T23:29:23.244Z,11.27
2023-05-20T23:31:53.124Z,11.90
2023-05-20T23:34:23.014Z,12.07
2023-05-20T23:36:53.018Z,12.40
2023-05-20T23:39:23.526Z,11.50
2023-05-20T23:41:53.407Z,11.57
2023-05-20T23:44:25.913Z,12.57
2023-05-20T23:46:56.123Z,11.80
2023-05-20T23:49:29.854Z,11.13
2023-05-20T23:52:00.099Z,12.10
2023-05-20T23:54:30.132Z,13.50
2023-05-20T23:57:00.143Z,13.50
2023-05-20T23:59:32.623Z,11.90
